首页
METAR-TAF:

METAR-TAF

机场 :

奧爾斯克, 俄罗斯

纬度: 51-04-18N, 经度: 058-35-48E, 海拔: 277米

当前天气观测

该预报发布于32分钟前的21:00 UTC
风速6节,风向西转西北
温度 12°C
湿度 54%
气压 1011 hPa
能见度10公里或以上
1500米以下无云,无积雨云

METAR: UWOR 182100Z 30003MPS CAVOK 12/03 Q1011 R25/CLRD65 NOSIG RMK QFE734/0979

时间: 02:32 (21:32 UTC)

预报

该预报发布于1小时和37分钟前的19:55 UTC
预报有效从18日的 21点(UTC)到 19日的 06点(UTC)
风速10节,风向北转西北,有时为19节阵风
能见度10公里或以上
多云层高于2000英尺, 积雨云.
多云层高于3000英尺
短暂存在
从 18日的 21点(UTC)到 19日的 06点(UTC)
风速6节,风向西转西北,有时为16节阵风
能見度: 4000
多云层高于1500英尺, 积雨云.
小阵雨

TAF: UWOR 181955Z 1821/1906 33005G10MPS 9999 BKN020CB BKN030 TEMPO 1821/1906 30003G08MPS 4000 -SHRA BKN015CB

超过4000个机场的气象观测和天气预报(METAR&TAF报告)。

可查询的气象台以黄色和红色小点在地图上表示。

将鼠标移到小点上方,可查看气象台名称。

然后点击查看天气观测和预报。

如需切换地图:点击带黑十字的绿色按钮放大地图;点击带横线的绿色按钮缩小地图;或者点击绿色箭头查看邻近地区的地图。


METAR-TAF: